sensor_id;sensor_type;location;lat;lon;timestamp;pressure;altitude;pressure_sealevel;temperature;humidity
76611;BME280;65503;48.534;9.062;2024-01-11T00:01:21;97803.81;;;-3.37;69.02
76611;BME280;65503;48.534;9.062;2024-01-11T00:03:47;97798.69;;;-3.37;69.53
76611;BME280;65503;48.534;9.062;2024-01-11T00:06:14;97796.09;;;-3.37;69.75
76611;BME280;65503;48.534;9.062;2024-01-11T00:08:40;97799.84;;;-3.41;70.16
76611;BME280;65503;48.534;9.062;2024-01-11T00:11:07;97801.00;;;-3.34;70.13
76611;BME280;65503;48.534;9.062;2024-01-11T00:13:34;97800.75;;;-3.30;69.94
76611;BME280;65503;48.534;9.062;2024-01-11T00:16:00;97804.94;;;-3.29;69.87
76611;BME280;65503;48.534;9.062;2024-01-11T00:18:27;97804.94;;;-3.29;69.40
76611;BME280;65503;48.534;9.062;2024-01-11T00:20:53;97804.94;;;-3.29;69.56
76611;BME280;65503;48.534;9.062;2024-01-11T00:23:20;97814.41;;;-3.30;69.67
76611;BME280;65503;48.534;9.062;2024-01-11T00:25:46;97811.72;;;-3.28;69.52
76611;BME280;65503;48.534;9.062;2024-01-11T00:28:13;97804.00;;;-3.28;69.17
76611;BME280;65503;48.534;9.062;2024-01-11T00:30:39;97805.75;;;-3.29;70.14
76611;BME280;65503;48.534;9.062;2024-01-11T00:33:06;97804.72;;;-3.26;69.51
76611;BME280;65503;48.534;9.062;2024-01-11T00:35:33;97803.97;;;-3.17;68.93
76611;BME280;65503;48.534;9.062;2024-01-11T00:38:00;97809.09;;;-3.17;69.06
76611;BME280;65503;48.534;9.062;2024-01-11T00:40:26;97807.47;;;-3.18;68.65
76611;BME280;65503;48.534;9.062;2024-01-11T00:42:53;97809.59;;;-3.23;68.72
76611;BME280;65503;48.534;9.062;2024-01-11T00:45:19;97803.78;;;-3.25;69.15
76611;BME280;65503;48.534;9.062;2024-01-11T00:47:46;97801.44;;;-3.28;69.58
76611;BME280;65503;48.534;9.062;2024-01-11T00:50:12;97802.03;;;-3.25;69.32
76611;BME280;65503;48.534;9.062;2024-01-11T00:52:39;97803.34;;;-3.30;68.97
76611;BME280;65503;48.534;9.062;2024-01-11T00:55:06;97802.75;;;-3.34;68.35
76611;BME280;65503;48.534;9.062;2024-01-11T00:57:33;97804.31;;;-3.43;69.17
76611;BME280;65503;48.534;9.062;2024-01-11T01:00:00;97813.88;;;-3.45;69.61
76611;BME280;65503;48.534;9.062;2024-01-11T01:02:26;97808.03;;;-3.47;69.83
76611;BME280;65503;48.534;9.062;2024-01-11T01:04:53;97803.16;;;-3.50;69.88
76611;BME280;65503;48.534;9.062;2024-01-11T01:07:19;97805.94;;;-3.53;69.01
76611;BME280;65503;48.534;9.062;2024-01-11T01:09:46;97805.28;;;-3.55;69.14
76611;BME280;65503;48.534;9.062;2024-01-11T01:12:12;97811.34;;;-3.56;69.50
76611;BME280;65503;48.534;9.062;2024-01-11T01:14:39;97802.00;;;-3.57;68.94
76611;BME280;65503;48.534;9.062;2024-01-11T01:17:06;97811.34;;;-3.56;69.64
76611;BME280;65503;48.534;9.062;2024-01-11T01:19:32;97813.66;;;-3.53;69.29
76611;BME280;65503;48.534;9.062;2024-01-11T01:21:59;97818.13;;;-3.55;68.68
76611;BME280;65503;48.534;9.062;2024-01-11T01:24:26;97821.19;;;-3.61;68.69
76611;BME280;65503;48.534;9.062;2024-01-11T01:26:53;97816.41;;;-3.65;69.14
76611;BME280;65503;48.534;9.062;2024-01-11T01:29:19;97829.47;;;-3.68;69.13
76611;BME280;65503;48.534;9.062;2024-01-11T01:31:46;97830.56;;;-3.71;69.22
76611;BME280;65503;48.534;9.062;2024-01-11T01:34:12;97837.56;;;-3.73;69.30
76611;BME280;65503;48.534;9.062;2024-01-11T01:36:41;97834.06;;;-3.72;69.25
76611;BME280;65503;48.534;9.062;2024-01-11T01:39:07;97831.03;;;-3.77;69.39
76611;BME280;65503;48.534;9.062;2024-01-11T01:41:34;97839.31;;;-3.73;69.81
76611;BME280;65503;48.534;9.062;2024-01-11T01:44:01;97837.00;;;-3.77;69.74
76611;BME280;65503;48.534;9.062;2024-01-11T01:46:27;97837.81;;;-3.76;69.93
76611;BME280;65503;48.534;9.062;2024-01-11T01:48:57;97827.53;;;-3.76;69.30
76611;BME280;65503;48.534;9.062;2024-01-11T01:51:27;97825.41;;;-3.71;69.20
76611;BME280;65503;48.534;9.062;2024-01-11T01:53:56;97830.56;;;-3.71;69.77
76611;BME280;65503;48.534;9.062;2024-01-11T01:56:23;97836.72;;;-3.73;69.69
76611;BME280;65503;48.534;9.062;2024-01-11T01:58:51;97838.13;;;-3.69;70.04
76611;BME280;65503;48.534;9.062;2024-01-11T02:01:19;97830.78;;;-3.74;69.69
76611;BME280;65503;48.534;9.062;2024-01-11T02:03:49;97823.78;;;-3.72;69.24
76611;BME280;65503;48.534;9.062;2024-01-11T02:06:16;97841.06;;;-3.74;69.85
76611;BME280;65503;48.534;9.062;2024-01-11T02:08:45;97842.13;;;-3.77;69.39
76611;BME280;65503;48.534;9.062;2024-01-11T02:11:12;97840.97;;;-3.84;69.95
76611;BME280;65503;48.534;9.062;2024-01-11T02:13:39;97842.00;;;-3.86;69.48
76611;BME280;65503;48.534;9.062;2024-01-11T02:16:05;97839.31;;;-3.85;69.04
76611;BME280;65503;48.534;9.062;2024-01-11T02:18:32;97845.50;;;-3.87;69.03
76611;BME280;65503;48.534;9.062;2024-01-11T02:20:59;97847.38;;;-3.89;70.26
76611;BME280;65503;48.534;9.062;2024-01-11T02:23:26;97832.91;;;-3.90;69.58
76611;BME280;65503;48.534;9.062;2024-01-11T02:25:53;97839.56;;;-3.88;69.02
76611;BME280;65503;48.534;9.062;2024-01-11T02:28:19;97849.84;;;-3.88;68.43
76611;BME280;65503;48.534;9.062;2024-01-11T02:30:46;97840.25;;;-3.97;68.91
76611;BME280;65503;48.534;9.062;2024-01-11T02:33:13;97841.53;;;-4.02;69.43
76611;BME280;65503;48.534;9.062;2024-01-11T02:35:42;97839.09;;;-4.04;68.75
76611;BME280;65503;48.534;9.062;2024-01-11T02:38:13;97838.97;;;-4.02;68.76
76611;BME280;65503;48.534;9.062;2024-01-11T02:40:40;97840.16;;;-4.06;68.78
76611;BME280;65503;48.534;9.062;2024-01-11T02:43:09;97842.25;;;-4.11;68.71
76611;BME280;65503;48.534;9.062;2024-01-11T02:45:36;97840.63;;;-4.12;69.36
76611;BME280;65503;48.534;9.062;2024-01-11T02:48:02;97844.69;;;-4.10;69.14
76611;BME280;65503;48.534;9.062;2024-01-11T02:50:29;97839.78;;;-4.13;69.40
76611;BME280;65503;48.534;9.062;2024-01-11T02:52:56;97837.59;;;-4.18;69.19
76611;BME280;65503;48.534;9.062;2024-01-11T02:55:22;97834.31;;;-4.20;69.35
76611;BME280;65503;48.534;9.062;2024-01-11T02:57:49;97839.69;;;-4.23;69.43
76611;BME280;65503;48.534;9.062;2024-01-11T03:00:15;97839.22;;;-4.28;69.72
76611;BME280;65503;48.534;9.062;2024-01-11T03:02:42;97842.59;;;-4.27;69.90
76611;BME280;65503;48.534;9.062;2024-01-11T03:05:09;97838.25;;;-4.27;68.88
76611;BME280;65503;48.534;9.062;2024-01-11T03:07:35;97836.88;;;-4.31;69.10
76611;BME280;65503;48.534;9.062;2024-01-11T03:10:02;97837.09;;;-4.34;68.90
76611;BME280;65503;48.534;9.062;2024-01-11T03:12:28;97827.16;;;-4.38;68.92
76611;BME280;65503;48.534;9.062;2024-01-11T03:14:55;97834.06;;;-4.39;68.79
76611;BME280;65503;48.534;9.062;2024-01-11T03:17:22;97830.78;;;-4.41;68.91
76611;BME280;65503;48.534;9.062;2024-01-11T03:19:48;97829.88;;;-4.40;68.51
76611;BME280;65503;48.534;9.062;2024-01-11T03:22:15;97832.63;;;-4.43;68.62
76611;BME280;65503;48.534;9.062;2024-01-11T03:24:41;97818.31;;;-4.45;68.45
76611;BME280;65503;48.534;9.062;2024-01-11T03:27:08;97820.97;;;-4.47;69.17
76611;BME280;65503;48.534;9.062;2024-01-11T03:29:34;97819.44;;;-4.49;68.87
76611;BME280;65503;48.534;9.062;2024-01-11T03:32:01;97823.06;;;-4.52;69.22
76611;BME280;65503;48.534;9.062;2024-01-11T03:34:27;97811.16;;;-4.53;69.66
76611;BME280;65503;48.534;9.062;2024-01-11T03:36:54;97814.66;;;-4.54;69.25
76611;BME280;65503;48.534;9.062;2024-01-11T03:39:21;97806.28;;;-4.56;69.41
76611;BME280;65503;48.534;9.062;2024-01-11T03:41:47;97809.97;;;-4.60;69.22
76611;BME280;65503;48.534;9.062;2024-01-11T03:44:14;97822.47;;;-4.55;69.24
76611;BME280;65503;48.534;9.062;2024-01-11T03:46:40;97812.09;;;-4.54;69.22
76611;BME280;65503;48.534;9.062;2024-01-11T03:49:07;97819.78;;;-4.54;68.92
76611;BME280;65503;48.534;9.062;2024-01-11T03:51:34;97820.72;;;-4.55;68.92
76611;BME280;65503;48.534;9.062;2024-01-11T03:54:01;97820.72;;;-4.55;68.72
76611;BME280;65503;48.534;9.062;2024-01-11T03:56:27;97818.97;;;-4.54;68.58
76611;BME280;65503;48.534;9.062;2024-01-11T03:58:54;97812.53;;;-4.60;68.58
76611;BME280;65503;48.534;9.062;2024-01-11T04:01:21;97814.44;;;-4.62;68.96
76611;BME280;65503;48.534;9.062;2024-01-11T04:03:48;97816.28;;;-4.64;68.74
76611;BME280;65503;48.534;9.062;2024-01-11T04:06:22;97815.56;;;-4.66;68.90
76611;BME280;65503;48.534;9.062;2024-01-11T04:08:50;97825.84;;;-4.66;68.70
76611;BME280;65503;48.534;9.062;2024-01-11T04:11:17;97812.19;;;-4.67;68.68
76611;BME280;65503;48.534;9.062;2024-01-11T04:13:44;97817.31;;;-4.67;68.50
76611;BME280;65503;48.534;9.062;2024-01-11T04:16:10;97810.69;;;-4.69;68.80
76611;BME280;65503;48.534;9.062;2024-01-11T04:18:38;97816.03;;;-4.72;68.60
76611;BME280;65503;48.534;9.062;2024-01-11T04:21:05;97814.63;;;-4.76;68.83
76611;BME280;65503;48.534;9.062;2024-01-11T04:23:31;97811.13;;;-4.75;68.48
76611;BME280;65503;48.534;9.062;2024-01-11T04:25:58;97818.81;;;-4.75;68.41
76611;BME280;65503;48.534;9.062;2024-01-11T04:28:24;97818.09;;;-4.77;68.74
76611;BME280;65503;48.534;9.062;2024-01-11T04:30:51;97819.16;;;-4.80;68.71
76611;BME280;65503;48.534;9.062;2024-01-11T04:33:17;97813.91;;;-4.78;69.26
76611;BME280;65503;48.534;9.062;2024-01-11T04:35:44;97814.50;;;-4.75;69.49
76611;BME280;65503;48.534;9.062;2024-01-11T04:38:11;97817.09;;;-4.75;70.01
76611;BME280;65503;48.534;9.062;2024-01-11T04:40:37;97817.91;;;-4.74;69.50
76611;BME280;65503;48.534;9.062;2024-01-11T04:43:04;97812.75;;;-4.74;69.16
76611;BME280;65503;48.534;9.062;2024-01-11T04:45:30;97820.56;;;-4.76;68.95
76611;BME280;65503;48.534;9.062;2024-01-11T04:47:57;97817.53;;;-4.81;68.95
76611;BME280;65503;48.534;9.062;2024-01-11T04:50:23;97821.03;;;-4.82;69.15
76611;BME280;65503;48.534;9.062;2024-01-11T04:52:50;97816.72;;;-4.81;69.90
76611;BME280;65503;48.534;9.062;2024-01-11T04:55:16;97817.91;;;-4.74;69.22
76611;BME280;65503;48.534;9.062;2024-01-11T04:57:43;97819.53;;;-4.73;68.43
76611;BME280;65503;48.534;9.062;2024-01-11T05:00:10;97819.88;;;-4.67;69.13
76611;BME280;65503;48.534;9.062;2024-01-11T05:02:36;97819.09;;;-4.67;69.91
76611;BME280;65503;48.534;9.062;2024-01-11T05:05:03;97821.53;;;-4.66;69.60
76611;BME280;65503;48.534;9.062;2024-01-11T05:07:30;97820.69;;;-4.66;69.76
76611;BME280;65503;48.534;9.062;2024-01-11T05:09:56;97820.25;;;-4.60;68.88
76611;BME280;65503;48.534;9.062;2024-01-11T05:12:23;97820.50;;;-4.63;69.36
76611;BME280;65503;48.534;9.062;2024-01-11T05:14:50;97819.22;;;-4.57;69.05
76611;BME280;65503;48.534;9.062;2024-01-11T05:17:16;97822.94;;;-4.62;68.81
76611;BME280;65503;48.534;9.062;2024-01-11T05:19:43;97817.22;;;-4.65;69.37
76611;BME280;65503;48.534;9.062;2024-01-11T05:22:09;97815.56;;;-4.66;69.12
76611;BME280;65503;48.534;9.062;2024-01-11T05:24:36;97820.69;;;-4.66;69.04
76611;BME280;65503;48.534;9.062;2024-01-11T05:27:03;97823.41;;;-4.68;69.45
76611;BME280;65503;48.534;9.062;2024-01-11T05:29:29;97837.97;;;-4.68;69.24
76611;BME280;65503;48.534;9.062;2024-01-11T05:31:56;97830.38;;;-4.70;68.74
76611;BME280;65503;48.534;9.062;2024-01-11T05:34:23;97831.41;;;-4.72;68.70
76611;BME280;65503;48.534;9.062;2024-01-11T05:36:50;97839.34;;;-4.75;68.79
76611;BME280;65503;48.534;9.062;2024-01-11T05:39:16;97838.63;;;-4.77;68.72
76611;BME280;65503;48.534;9.062;2024-01-11T05:41:44;97847.06;;;-4.75;68.22
76611;BME280;65503;48.534;9.062;2024-01-11T05:44:11;97843.09;;;-4.79;68.20
76611;BME280;65503;48.534;9.062;2024-01-11T05:46:38;97857.75;;;-4.81;67.94
76611;BME280;65503;48.534;9.062;2024-01-11T05:49:04;97851.72;;;-4.80;68.33
76611;BME280;65503;48.534;9.062;2024-01-11T05:51:31;97856.13;;;-4.82;68.57
76611;BME280;65503;48.534;9.062;2024-01-11T05:53:57;97858.78;;;-4.84;68.70
76611;BME280;65503;48.534;9.062;2024-01-11T05:56:24;97859.84;;;-4.86;68.44
76611;BME280;65503;48.534;9.062;2024-01-11T05:58:50;97859.84;;;-4.86;68.46
76611;BME280;65503;48.534;9.062;2024-01-11T06:01:17;97870.13;;;-4.86;68.03
76611;BME280;65503;48.534;9.062;2024-01-11T06:03:43;97857.50;;;-4.89;67.86
76611;BME280;65503;48.534;9.062;2024-01-11T06:06:10;97855.16;;;-4.92;67.70
76611;BME280;65503;48.534;9.062;2024-01-11T06:08:37;97858.88;;;-4.96;67.82
76611;BME280;65503;48.534;9.062;2024-01-11T06:11:04;97865.16;;;-5.01;68.62
76611;BME280;65503;48.534;9.062;2024-01-11T06:13:32;97874.50;;;-5.00;68.56
76611;BME280;65503;48.534;9.062;2024-01-11T06:15:58;97877.97;;;-5.01;68.37
76611;BME280;65503;48.534;9.062;2024-01-11T06:18:25;97875.41;;;-5.01;68.69
76611;BME280;65503;48.534;9.062;2024-01-11T06:20:51;97878.69;;;-4.98;68.39
76611;BME280;65503;48.534;9.062;2024-01-11T06:23:18;97876.94;;;-4.98;68.53
76611;BME280;65503;48.534;9.062;2024-01-11T06:25:46;97876.13;;;-4.98;68.20
76611;BME280;65503;48.534;9.062;2024-01-11T06:28:13;97881.50;;;-5.02;68.34
76611;BME280;65503;48.534;9.062;2024-01-11T06:30:39;97883.34;;;-5.04;68.51
76611;BME280;65503;48.534;9.062;2024-01-11T06:33:06;97879.84;;;-5.03;68.26
76611;BME280;65503;48.534;9.062;2024-01-11T06:35:32;97879.13;;;-5.05;67.91
76611;BME280;65503;48.534;9.062;2024-01-11T06:37:59;97882.75;;;-5.07;67.64
76611;BME280;65503;48.534;9.062;2024-01-11T06:40:26;97888.91;;;-5.10;67.85
76611;BME280;65503;48.534;9.062;2024-01-11T06:42:52;97879.81;;;-5.14;68.12
76611;BME280;65503;48.534;9.062;2024-01-11T06:45:19;97877.44;;;-5.17;68.02
76611;BME280;65503;48.534;9.062;2024-01-11T06:47:46;97875.81;;;-5.18;67.96
76611;BME280;65503;48.534;9.062;2024-01-11T06:50:13;97875.59;;;-5.15;68.85
76611;BME280;65503;48.534;9.062;2024-01-11T06:52:40;97879.09;;;-5.16;69.35
76611;BME280;65503;48.534;9.062;2024-01-11T06:55:07;97877.00;;;-5.11;69.20
76611;BME280;65503;48.534;9.062;2024-01-11T06:57:34;97881.94;;;-5.08;69.07
76611;BME280;65503;48.534;9.062;2024-01-11T07:00:01;97878.22;;;-5.04;69.73
76611;BME280;65503;48.534;9.062;2024-01-11T07:02:27;97884.06;;;-5.02;69.32
76611;BME280;65503;48.534;9.062;2024-01-11T07:04:54;97887.81;;;-4.94;69.21
76611;BME280;65503;48.534;9.062;2024-01-11T07:07:21;97891.91;;;-4.92;68.90
76611;BME280;65503;48.534;9.062;2024-01-11T07:09:48;97887.16;;;-4.85;68.92
76611;BME280;65503;48.534;9.062;2024-01-11T07:12:14;97887.84;;;-4.83;68.75
76611;BME280;65503;48.534;9.062;2024-01-11T07:14:42;97894.50;;;-4.81;68.75
76611;BME280;65503;48.534;9.062;2024-01-11T07:17:08;97891.59;;;-4.76;68.59
76611;BME280;65503;48.534;9.062;2024-01-11T07:19:35;97893.00;;;-4.72;68.63
76611;BME280;65503;48.534;9.062;2024-01-11T07:22:03;97907.03;;;-4.65;68.43
76611;BME280;65503;48.534;9.062;2024-01-11T07:24:30;97912.22;;;-4.54;68.32
76611;BME280;65503;48.534;9.062;2024-01-11T07:27:06;97914.75;;;-4.65;68.27
76611;BME280;65503;48.534;9.062;2024-01-11T07:29:33;97919.41;;;-4.70;68.19
76611;BME280;65503;48.534;9.062;2024-01-11T07:32:00;97917.75;;;-4.71;67.69
76611;BME280;65503;48.534;9.062;2024-01-11T07:34:27;97928.94;;;-4.72;67.54
76611;BME280;65503;48.534;9.062;2024-01-11T07:36:54;97934.09;;;-4.72;67.73
76611;BME280;65503;48.534;9.062;2024-01-11T07:39:21;97930.81;;;-4.74;67.97
76611;BME280;65503;48.534;9.062;2024-01-11T07:41:48;97933.88;;;-4.69;68.14
76611;BME280;65503;48.534;9.062;2024-01-11T07:44:15;97939.38;;;-4.63;68.15
76611;BME280;65503;48.534;9.062;2024-01-11T07:46:42;97930.16;;;-4.65;67.84
76611;BME280;65503;48.534;9.062;2024-01-11T07:49:19;97924.81;;;-4.62;68.04
76611;BME280;65503;48.534;9.062;2024-01-11T07:51:46;97933.47;;;-4.52;67.93
76611;BME280;65503;48.534;9.062;2024-01-11T07:54:13;97932.09;;;-4.45;67.72
76611;BME280;65503;48.534;9.062;2024-01-11T07:56:39;97940.88;;;-4.36;67.81
76611;BME280;65503;48.534;9.062;2024-01-11T07:59:06;97944.28;;;-4.25;68.04
76611;BME280;65503;48.534;9.062;2024-01-11T08:01:33;97944.78;;;-4.08;68.02
76611;BME280;65503;48.534;9.062;2024-01-11T08:04:02;97936.41;;;-3.88;67.72
76611;BME280;65503;48.534;9.062;2024-01-11T08:06:29;97930.00;;;-3.60;67.33
76611;BME280;65503;48.534;9.062;2024-01-11T08:08:56;97924.72;;;-3.37;66.41
76611;BME280;65503;48.534;9.062;2024-01-11T08:11:22;97936.13;;;-3.18;65.15
76611;BME280;65503;48.534;9.062;2024-01-11T08:13:49;97945.69;;;-2.98;65.13
76611;BME280;65503;48.534;9.062;2024-01-11T08:16:16;97945.19;;;-2.81;65.24
76611;BME280;65503;48.534;9.062;2024-01-11T08:18:44;97951.47;;;-2.74;64.24
76611;BME280;65503;48.534;9.062;2024-01-11T08:21:12;97956.38;;;-2.71;65.34
76611;BME280;65503;48.534;9.062;2024-01-11T08:23:41;97961.28;;;-2.68;64.63
76611;BME280;65503;48.534;9.062;2024-01-11T08:26:12;97969.47;;;-2.63;64.63
76611;BME280;65503;48.534;9.062;2024-01-11T08:28:41;97976.03;;;-2.70;65.00
76611;BME280;65503;48.534;9.062;2024-01-11T08:31:07;97982.28;;;-2.83;63.41
76611;BME280;65503;48.534;9.062;2024-01-11T08:33:35;97981.94;;;-2.90;64.13
76611;BME280;65503;48.534;9.062;2024-01-11T08:36:04;97981.03;;;-3.00;64.12
76611;BME280;65503;48.534;9.062;2024-01-11T08:38:31;97992.97;;;-2.99;65.46
76611;BME280;65503;48.534;9.062;2024-01-11T08:40:58;98002.53;;;-3.01;64.86
76611;BME280;65503;48.534;9.062;2024-01-11T08:43:26;97999.00;;;-2.89;64.27
76611;BME280;65503;48.534;9.062;2024-01-11T08:45:53;97986.63;;;-3.06;63.67
76611;BME280;65503;48.534;9.062;2024-01-11T08:48:20;97984.72;;;-2.82;65.24
76611;BME280;65503;48.534;9.062;2024-01-11T08:50:47;97978.03;;;-2.41;64.20
76611;BME280;65503;48.534;9.062;2024-01-11T08:53:14;97993.06;;;-1.94;64.17
76611;BME280;65503;48.534;9.062;2024-01-11T08:55:42;98004.84;;;-1.71;63.58
76611;BME280;65503;48.534;9.062;2024-01-11T08:58:11;98001.41;;;-1.60;63.12
76611;BME280;65503;48.534;9.062;2024-01-11T09:00:38;98017.00;;;-1.61;59.58
76611;BME280;65503;48.534;9.062;2024-01-11T09:03:04;98017.44;;;-1.56;60.42
76611;BME280;65503;48.534;9.062;2024-01-11T09:05:31;98011.31;;;-1.55;61.88
76611;BME280;65503;48.534;9.062;2024-01-11T09:07:58;98018.47;;;-1.38;61.23
76611;BME280;65503;48.534;9.062;2024-01-11T09:10:25;98010.47;;;-1.35;60.41
76611;BME280;65503;48.534;9.062;2024-01-11T09:12:52;98012.94;;;-1.24;60.31
76611;BME280;65503;48.534;9.062;2024-01-11T09:15:18;98013.59;;;-1.01;61.56
76611;BME280;65503;48.534;9.062;2024-01-11T09:17:45;98011.94;;;-1.02;61.18
76611;BME280;65503;48.534;9.062;2024-01-11T09:20:12;98021.69;;;-1.15;61.80
76611;BME280;65503;48.534;9.062;2024-01-11T09:22:40;98018.63;;;-1.30;61.50
76611;BME280;65503;48.534;9.062;2024-01-11T09:25:07;98021.13;;;-1.19;62.25
76611;BME280;65503;48.534;9.062;2024-01-11T09:27:34;98017.47;;;-1.16;63.08
76611;BME280;65503;48.534;9.062;2024-01-11T09:30:01;98007.78;;;-1.24;63.56
76611;BME280;65503;48.534;9.062;2024-01-11T09:32:28;98005.38;;;-1.16;63.92
76611;BME280;65503;48.534;9.062;2024-01-11T09:34:56;98001.94;;;-1.56;63.67
76611;BME280;65503;48.534;9.062;2024-01-11T09:37:23;98010.72;;;-1.38;63.99
76611;BME280;65503;48.534;9.062;2024-01-11T09:39:50;98006.69;;;-1.31;64.27
76611;BME280;65503;48.534;9.062;2024-01-11T09:42:18;98012.44;;;-1.18;65.42
76611;BME280;65503;48.534;9.062;2024-01-11T09:44:44;98017.16;;;-0.93;66.61
76611;BME280;65503;48.534;9.062;2024-01-11T09:47:14;98022.69;;;-0.57;64.96
76611;BME280;65503;48.534;9.062;2024-01-11T09:49:43;98025.72;;;0.06;65.96
76611;BME280;65503;48.534;9.062;2024-01-11T09:52:11;98014.22;;;0.37;63.17
76611;BME280;65503;48.534;9.062;2024-01-11T09:54:39;98019.34;;;0.56;62.82
76611;BME280;65503;48.534;9.062;2024-01-11T09:57:08;98013.81;;;0.78;63.53
76611;BME280;65503;48.534;9.062;2024-01-11T09:59:35;98009.59;;;1.05;60.92
76611;BME280;65503;48.534;9.062;2024-01-11T10:02:03;98000.56;;;1.09;59.18
76611;BME280;65503;48.534;9.062;2024-01-11T10:04:30;98008.16;;;1.20;60.47
76611;BME280;65503;48.534;9.062;2024-01-11T10:06:57;98001.06;;;1.22;58.33
76611;BME280;65503;48.534;9.062;2024-01-11T10:09:23;98005.88;;;0.90;56.19
76611;BME280;65503;48.534;9.062;2024-01-11T10:11:50;98008.03;;;0.94;57.31
76611;BME280;65503;48.534;9.062;2024-01-11T10:14:20;97990.03;;;0.93;56.13
76611;BME280;65503;48.534;9.062;2024-01-11T10:16:47;98000.97;;;0.87;57.73
76611;BME280;65503;48.534;9.062;2024-01-11T10:19:14;97999.06;;;0.89;56.74
76611;BME280;65503;48.534;9.062;2024-01-11T10:21:43;97999.31;;;0.86;58.02
76611;BME280;65503;48.534;9.062;2024-01-11T10:24:09;97992.91;;;0.90;59.71
76611;BME280;65503;48.534;9.062;2024-01-11T10:26:36;97986.00;;;1.08;58.90
76611;BME280;65503;48.534;9.062;2024-01-11T10:29:02;98005.97;;;1.25;57.73
76611;BME280;65503;48.534;9.062;2024-01-11T10:31:30;98000.38;;;1.47;57.66
76611;BME280;65503;48.534;9.062;2024-01-11T10:33:57;97994.81;;;1.42;57.03
76611;BME280;65503;48.534;9.062;2024-01-11T10:36:24;97986.34;;;1.40;55.94
76611;BME280;65503;48.534;9.062;2024-01-11T10:38:52;97979.47;;;1.66;55.65
76611;BME280;65503;48.534;9.062;2024-01-11T10:41:19;97978.94;;;1.98;55.97
76611;BME280;65503;48.534;9.062;2024-01-11T10:43:48;97980.38;;;1.93;55.78
76611;BME280;65503;48.534;9.062;2024-01-11T10:46:15;97967.97;;;2.04;55.08
76611;BME280;65503;48.534;9.062;2024-01-11T10:48:47;97972.84;;;2.07;55.24
76611;BME280;65503;48.534;9.062;2024-01-11T10:51:16;97975.66;;;2.14;55.27
76611;BME280;65503;48.534;9.062;2024-01-11T10:53:47;97972.84;;;2.07;53.49
76611;BME280;65503;48.534;9.062;2024-01-11T10:56:15;97979.28;;;2.21;54.22
76611;BME280;65503;48.534;9.062;2024-01-11T10:58:45;97984.75;;;2.18;53.54
76611;BME280;65503;48.534;9.062;2024-01-11T11:01:13;97975.41;;;2.25;53.96
76611;BME280;65503;48.534;9.062;2024-01-11T11:03:40;97969.28;;;2.34;54.06
76611;BME280;65503;48.534;9.062;2024-01-11T11:06:10;97977.44;;;2.39;54.12
76611;BME280;65503;48.534;9.062;2024-01-11T11:08:37;97974.28;;;2.54;54.06
76611;BME280;65503;48.534;9.062;2024-01-11T11:11:04;97972.56;;;2.36;53.94
76611;BME280;65503;48.534;9.062;2024-01-11T11:13:33;97974.78;;;2.31;53.41
76611;BME280;65503;48.534;9.062;2024-01-11T11:16:01;97976.22;;;2.52;54.20
76611;BME280;65503;48.534;9.062;2024-01-11T11:18:31;97977.53;;;2.30;53.67
76611;BME280;65503;48.534;9.062;2024-01-11T11:20:58;97975.09;;;2.28;54.85
76611;BME280;65503;48.534;9.062;2024-01-11T11:23:25;97974.53;;;2.42;53.90
76611;BME280;65503;48.534;9.062;2024-01-11T11:25:54;97978.88;;;2.60;52.80
76611;BME280;65503;48.534;9.062;2024-01-11T11:28:20;97981.47;;;2.94;53.54
76611;BME280;65503;48.534;9.062;2024-01-11T11:30:52;97984.13;;;2.76;51.60
76611;BME280;65503;48.534;9.062;2024-01-11T11:33:21;97988.97;;;3.05;53.06
76611;BME280;65503;48.534;9.062;2024-01-11T11:35:52;97989.59;;;3.41;51.66
76611;BME280;65503;48.534;9.062;2024-01-11T11:38:27;97986.66;;;3.44;50.58
76611;BME280;65503;48.534;9.062;2024-01-11T11:40:59;97988.97;;;3.63;51.36
76611;BME280;65503;48.534;9.062;2024-01-11T11:43:26;97983.91;;;3.53;50.08
76611;BME280;65503;48.534;9.062;2024-01-11T11:45:53;97981.50;;;3.68;50.44
76611;BME280;65503;48.534;9.062;2024-01-11T11:51:10;97974.03;;;4.05;50.12
76611;BME280;65503;48.534;9.062;2024-01-11T11:53:38;97974.84;;;3.90;49.99
76611;BME280;65503;48.534;9.062;2024-01-11T11:56:06;97983.16;;;4.01;50.06
76611;BME280;65503;48.534;9.062;2024-01-11T11:58:34;97989.00;;;4.44;48.62
76611;BME280;65503;48.534;9.062;2024-01-11T12:01:01;97982.72;;;4.69;48.39
76611;BME280;65503;48.534;9.062;2024-01-11T12:03:40;97980.50;;;4.34;49.07
76611;BME280;65503;48.534;9.062;2024-01-11T12:06:10;97970.78;;;4.20;49.14
76611;BME280;65503;48.534;9.062;2024-01-11T12:08:37;97955.16;;;3.71;50.84
76611;BME280;65503;48.534;9.062;2024-01-11T12:11:04;97943.13;;;4.02;50.39
76611;BME280;65503;48.534;9.062;2024-01-11T12:13:31;97932.03;;;4.00;49.77
76611;BME280;65503;48.534;9.062;2024-01-11T12:15:59;97931.72;;;3.95;50.67
76611;BME280;65503;48.534;9.062;2024-01-11T12:18:25;97926.84;;;3.92;50.25
76611;BME280;65503;48.534;9.062;2024-01-11T12:20:52;97942.63;;;4.07;50.52
76611;BME280;65503;48.534;9.062;2024-01-11T12:23:23;97944.06;;;4.26;50.20
76611;BME280;65503;48.534;9.062;2024-01-11T12:25:50;97951.22;;;4.24;50.08
76611;BME280;65503;48.534;9.062;2024-01-11T12:28:16;97939.69;;;4.18;49.91
76611;BME280;65503;48.534;9.062;2024-01-11T12:30:45;97919.94;;;4.40;50.07
76611;BME280;65503;48.534;9.062;2024-01-11T12:33:12;97907.56;;;4.42;50.01
76611;BME280;65503;48.534;9.062;2024-01-11T12:35:39;97913.28;;;4.29;50.38
76611;BME280;65503;48.534;9.062;2024-01-11T12:38:07;97924.81;;;4.43;50.14
76611;BME280;65503;48.534;9.062;2024-01-11T12:40:34;97916.44;;;3.60;51.31
76611;BME280;65503;48.534;9.062;2024-01-11T12:43:02;97914.81;;;3.75;51.56
76611;BME280;65503;48.534;9.062;2024-01-11T12:45:29;97907.00;;;3.91;51.12
76611;BME280;65503;48.534;9.062;2024-01-11T12:47:59;97903.75;;;3.97;51.43
76611;BME280;65503;48.534;9.062;2024-01-11T12:50:27;97909.59;;;4.07;50.39
76611;BME280;65503;48.534;9.062;2024-01-11T12:53:07;97909.41;;;4.17;50.82
76611;BME280;65503;48.534;9.062;2024-01-11T12:55:35;97909.59;;;4.07;51.08
76611;BME280;65503;48.534;9.062;2024-01-11T12:58:20;97910.91;;;3.95;50.47
76611;BME280;65503;48.534;9.062;2024-01-11T13:00:52;97903.78;;;3.81;51.15
76611;BME280;65503;48.534;9.062;2024-01-11T13:03:19;97899.19;;;3.91;51.09
76611;BME280;65503;48.534;9.062;2024-01-11T13:05:47;97912.84;;;4.09;50.68